Time;durP1;ratioP1;P1;durP2;ratioP2;P2;SDS_P1;SDS_P2;PMS_P1;PMS_P2;Temp;Humidity;BMP_temperature;BMP_pressure;BME280_temperature;BME280_humidity;BME280_pressure;Samples;Min_cycle;Max_cycle;Signal;HPM_P1;HPM_P2
2023/04/06 00:01:46;;;;;;;7.27;3.90;;;3.80;99.90;;;;;;5016424;28;20451;-77
2023/04/06 00:04:12;;;;;;;5.73;4.00;;;3.70;99.90;;;;;;5015331;28;20026;-77
2023/04/06 00:06:37;;;;;;;7.97;4.10;;;3.70;99.90;;;;;;5015435;28;20026;-77
2023/04/06 00:09:03;;;;;;;5.97;3.70;;;3.60;99.90;;;;;;5016118;28;20108;-77
2023/04/06 00:11:29;;;;;;;7.87;4.33;;;3.60;99.90;;;;;;5014613;28;20038;-77
2023/04/06 00:13:54;;;;;;;6.70;3.73;;;3.60;99.90;;;;;;5016588;28;20077;-77
2023/04/06 00:16:20;;;;;;;9.90;4.57;;;3.60;99.90;;;;;;5015815;28;20032;-76
2023/04/06 00:18:46;;;;;;;7.27;4.00;;;3.60;99.90;;;;;;5015405;28;20068;-77
2023/04/06 00:21:14;;;;;;;6.03;4.40;;;3.60;99.90;;;;;;5016456;28;20121;-76
2023/04/06 00:23:40;;;;;;;7.80;3.80;;;3.60;99.90;;;;;;5006671;28;20022;-78
2023/04/06 00:26:06;;;;;;;8.10;3.50;;;3.60;99.90;;;;;;4994826;28;20049;-78
2023/04/06 00:28:32;;;;;;;7.07;4.07;;;3.50;99.90;;;;;;4995078;28;20022;-78
2023/04/06 00:30:57;;;;;;;6.57;3.80;;;3.60;99.90;;;;;;4996269;28;20040;-78
2023/04/06 00:33:23;;;;;;;5.70;3.63;;;3.60;99.90;;;;;;4995419;28;20054;-78
2023/04/06 00:35:49;;;;;;;5.53;3.57;;;3.60;99.90;;;;;;4996259;28;20031;-78
2023/04/06 00:38:15;;;;;;;6.73;3.57;;;3.50;99.90;;;;;;4995993;28;20136;-78
2023/04/06 00:40:41;;;;;;;6.93;3.50;;;3.60;99.90;;;;;;4995616;28;21480;-78
2023/04/06 00:43:08;;;;;;;6.33;3.73;;;3.50;99.90;;;;;;4996111;28;20065;-79
2023/04/06 00:45:34;;;;;;;5.10;3.63;;;3.50;99.90;;;;;;4995390;28;20018;-78
2023/04/06 00:48:01;;;;;;;5.60;3.27;;;3.50;99.90;;;;;;4994732;28;20503;-78
2023/04/06 00:50:27;;;;;;;6.40;3.53;;;3.50;99.90;;;;;;4995440;28;20022;-78
2023/04/06 00:52:53;;;;;;;6.17;3.63;;;3.40;99.90;;;;;;4995760;28;20034;-78
2023/04/06 00:55:19;;;;;;;5.03;3.53;;;3.40;99.90;;;;;;4994770;28;20084;-76
2023/04/06 00:57:45;;;;;;;5.70;3.57;;;3.40;99.90;;;;;;4994578;28;20419;-77
2023/04/06 01:00:12;;;;;;;8.07;3.73;;;3.30;99.90;;;;;;4996037;28;20106;-77
2023/04/06 01:02:38;;;;;;;4.37;3.60;;;3.30;99.90;;;;;;4995047;28;20037;-77
2023/04/06 01:05:04;;;;;;;7.87;3.50;;;3.30;99.90;;;;;;4995575;28;20026;-77
2023/04/06 01:07:30;;;;;;;5.90;3.57;;;3.30;99.90;;;;;;4995110;28;20027;-76
2023/04/06 01:09:55;;;;;;;5.67;3.53;;;3.20;99.90;;;;;;4995700;28;20138;-76
2023/04/06 01:12:21;;;;;;;4.77;3.47;;;3.00;99.90;;;;;;4993801;28;20038;-76
2023/04/06 01:14:47;;;;;;;6.60;3.93;;;2.90;99.90;;;;;;4995382;28;20041;-77
2023/04/06 01:17:13;;;;;;;7.13;4.00;;;2.90;99.90;;;;;;4995542;28;20464;-76
2023/04/06 01:19:40;;;;;;;6.87;3.87;;;2.80;99.90;;;;;;4993811;28;20383;-76
2023/04/06 01:22:06;;;;;;;8.10;4.70;;;2.80;99.90;;;;;;4995522;28;20033;-77
2023/04/06 01:24:32;;;;;;;8.67;4.67;;;2.60;99.90;;;;;;4994783;28;20023;-76
2023/04/06 01:26:58;;;;;;;9.30;4.60;;;2.50;99.90;;;;;;4994026;28;20030;-76
2023/04/06 01:29:24;;;;;;;8.63;4.60;;;2.50;99.90;;;;;;4994912;28;20049;-76
2023/04/06 01:31:49;;;;;;;7.00;4.00;;;2.40;99.90;;;;;;4994047;28;20031;-77
2023/04/06 01:34:15;;;;;;;6.13;4.33;;;2.50;99.90;;;;;;4994143;28;20383;-77
2023/04/06 01:36:42;;;;;;;7.70;4.07;;;2.60;99.90;;;;;;4993535;28;20121;-77
2023/04/06 01:39:07;;;;;;;7.63;4.37;;;2.70;99.90;;;;;;4995189;28;20360;-77
2023/04/06 01:41:33;;;;;;;7.20;4.53;;;2.70;99.90;;;;;;4993175;28;20138;-77
2023/04/06 01:43:59;;;;;;;6.97;3.97;;;2.70;99.90;;;;;;4994560;28;20026;-77
2023/04/06 01:46:25;;;;;;;7.77;4.63;;;2.70;99.90;;;;;;4994958;28;20026;-77
2023/04/06 01:48:50;;;;;;;7.50;4.07;;;2.70;99.90;;;;;;4995264;28;20081;-77
2023/04/06 01:51:16;;;;;;;9.03;4.10;;;2.70;99.90;;;;;;4992965;28;20101;-78
2023/04/06 01:53:42;;;;;;;5.47;3.83;;;2.70;99.90;;;;;;4993450;28;20033;-78
2023/04/06 01:56:07;;;;;;;8.60;3.97;;;2.70;99.90;;;;;;4993981;28;20395;-77
2023/04/06 01:58:33;;;;;;;7.63;4.00;;;2.70;99.90;;;;;;4993468;28;20038;-77
2023/04/06 02:00:59;;;;;;;6.40;4.03;;;2.70;99.90;;;;;;4994145;28;20034;-77
2023/04/06 02:03:25;;;;;;;7.73;4.60;;;2.60;99.90;;;;;;4994494;28;20057;-76
2023/04/06 02:05:50;;;;;;;8.40;4.10;;;2.50;99.90;;;;;;4995098;28;20383;-78
2023/04/06 02:08:16;;;;;;;6.37;4.20;;;2.60;99.90;;;;;;4994801;28;20034;-77
2023/04/06 02:10:41;;;;;;;7.30;4.20;;;2.60;99.90;;;;;;4993617;28;20037;-77
2023/04/06 02:13:07;;;;;;;8.20;4.37;;;2.50;99.90;;;;;;4994639;28;20468;-77
2023/04/06 02:15:33;;;;;;;8.60;4.67;;;2.40;99.90;;;;;;4993902;28;20030;-77
2023/04/06 02:18:00;;;;;;;7.53;4.70;;;2.40;99.90;;;;;;4993500;28;20125;-77
2023/04/06 02:20:26;;;;;;;7.67;4.30;;;2.40;99.90;;;;;;4992847;28;20137;-76
2023/04/06 02:22:51;;;;;;;7.00;4.37;;;2.30;99.90;;;;;;4994384;28;20468;-77
2023/04/06 02:25:17;;;;;;;5.93;4.00;;;2.30;99.90;;;;;;4993652;28;20361;-77
2023/04/06 02:27:43;;;;;;;6.90;4.47;;;2.20;99.90;;;;;;4992262;28;20034;-77
2023/04/06 02:30:09;;;;;;;8.40;4.40;;;2.10;99.90;;;;;;4994290;28;20027;-77
2023/04/06 02:32:34;;;;;;;8.20;4.23;;;2.20;99.90;;;;;;4992783;28;20030;-77
2023/04/06 02:35:01;;;;;;;7.20;4.00;;;2.20;99.90;;;;;;4992982;28;20380;-77
2023/04/06 02:37:27;;;;;;;6.70;3.80;;;2.20;99.90;;;;;;4992221;28;20038;-76
2023/04/06 02:39:54;;;;;;;6.30;3.80;;;2.20;99.90;;;;;;4994343;28;20019;-76
2023/04/06 02:42:20;;;;;;;5.77;3.53;;;2.20;99.90;;;;;;4993816;28;20057;-76
2023/04/06 02:44:46;;;;;;;5.07;3.70;;;2.30;99.90;;;;;;4992276;28;20644;-76
2023/04/06 02:47:11;;;;;;;7.47;4.10;;;2.30;99.90;;;;;;4992983;28;20033;-76
2023/04/06 02:49:37;;;;;;;8.80;4.60;;;2.40;99.90;;;;;;4993550;28;20032;-76
2023/04/06 02:52:03;;;;;;;9.07;4.20;;;2.40;99.90;;;;;;4992835;28;20373;-76
2023/04/06 02:54:29;;;;;;;6.30;3.87;;;2.40;99.90;;;;;;4992187;28;20029;-76
2023/04/06 02:56:54;;;;;;;6.27;3.97;;;2.40;99.90;;;;;;4992750;28;20114;-76
2023/04/06 02:59:20;;;;;;;7.30;4.40;;;2.40;99.90;;;;;;4992698;28;20030;-76
2023/04/06 03:01:46;;;;;;;6.30;3.63;;;2.40;99.90;;;;;;4991100;28;20034;-77
2023/04/06 03:04:11;;;;;;;6.90;3.93;;;2.30;99.90;;;;;;4993726;28;20088;-76
2023/04/06 03:06:37;;;;;;;6.63;3.97;;;2.20;99.90;;;;;;4993134;28;20026;-76
2023/04/06 03:09:03;;;;;;;6.37;3.80;;;2.30;99.90;;;;;;4992351;28;20034;-76
2023/04/06 03:11:29;;;;;;;8.47;4.23;;;2.30;99.90;;;;;;4991990;28;20030;-75
2023/04/06 03:13:54;;;;;;;9.50;4.20;;;2.30;99.90;;;;;;5008765;28;20041;-76
2023/04/06 03:16:20;;;;;;;6.63;4.27;;;2.30;99.90;;;;;;4993825;28;20085;-76
2023/04/06 03:18:46;;;;;;;7.30;4.20;;;2.30;99.90;;;;;;4993073;28;20101;-76
2023/04/06 03:21:15;;;;;;;7.03;4.30;;;2.30;99.90;;;;;;4992472;28;20088;-76
2023/04/06 03:23:40;;;;;;;7.67;4.47;;;2.20;99.90;;;;;;4993366;28;20022;-76
2023/04/06 03:26:06;;;;;;;6.57;3.77;;;2.10;99.90;;;;;;4992613;28;20467;-77
2023/04/06 03:28:32;;;;;;;8.10;4.40;;;2.00;99.90;;;;;;4991913;28;20022;-77
2023/04/06 03:30:57;;;;;;;9.17;4.13;;;2.00;99.90;;;;;;4992283;28;20034;-77
2023/04/06 03:33:23;;;;;;;5.87;3.87;;;1.90;99.90;;;;;;5008875;28;20129;-77
2023/04/06 03:35:48;;;;;;;5.77;3.80;;;1.90;99.90;;;;;;4992951;28;20245;-76
2023/04/06 03:38:14;;;;;;;7.20;3.90;;;1.90;99.90;;;;;;4993301;28;20029;-76
2023/04/06 03:40:40;;;;;;;10.13;4.17;;;1.80;99.90;;;;;;5007751;28;20081;-76
2023/04/06 03:43:05;;;;;;;7.23;3.77;;;1.70;99.90;;;;;;4993298;28;20138;-76
2023/04/06 03:45:31;;;;;;;7.67;3.90;;;1.80;99.90;;;;;;4992581;28;20022;-75
2023/04/06 03:47:57;;;;;;;8.47;4.10;;;1.80;99.90;;;;;;4993212;28;20030;-76
2023/04/06 03:50:22;;;;;;;7.00;3.67;;;1.80;99.90;;;;;;5008162;28;20034;-76
2023/04/06 03:52:48;;;;;;;5.87;3.60;;;1.80;99.90;;;;;;4992811;28;20038;-77
2023/04/06 03:55:14;;;;;;;6.50;3.67;;;1.80;99.90;;;;;;4993510;28;20054;-77
2023/04/06 03:57:40;;;;;;;7.70;3.50;;;1.80;99.90;;;;;;4992863;28;20022;-77
2023/04/06 04:00:06;;;;;;;7.67;4.20;;;1.80;99.90;;;;;;4992170;28;20472;-77
2023/04/06 04:02:32;;;;;;;5.43;3.77;;;1.90;99.90;;;;;;4991461;28;20033;-76
2023/04/06 04:04:57;;;;;;;6.60;3.87;;;1.90;99.90;;;;;;4993369;28;20026;-77
2023/04/06 04:07:23;;;;;;;7.57;4.40;;;1.90;99.90;;;;;;4993023;28;20097;-77
2023/04/06 04:09:48;;;;;;;6.90;3.77;;;1.90;99.90;;;;;;5007888;28;20150;-77
2023/04/06 04:12:16;;;;;;;7.37;3.87;;;1.90;99.90;;;;;;4991515;28;20480;-76
2023/04/06 04:14:42;;;;;;;6.47;4.20;;;1.90;99.90;;;;;;5011023;28;20034;-75
2023/04/06 04:17:08;;;;;;;6.27;3.80;;;1.90;99.90;;;;;;4995424;28;20472;-76
2023/04/06 04:19:33;;;;;;;8.80;4.37;;;1.80;99.90;;;;;;5010895;28;20034;-75
2023/04/06 04:21:59;;;;;;;5.13;3.33;;;1.80;99.90;;;;;;5011419;28;20031;-75
2023/04/06 04:24:26;;;;;;;4.93;3.40;;;1.70;99.90;;;;;;4996201;28;20101;-76
2023/04/06 04:26:51;;;;;;;6.23;4.10;;;1.80;99.90;;;;;;4995655;28;20026;-75
2023/04/06 04:29:19;;;;;;;7.77;3.80;;;1.80;99.90;;;;;;4996236;28;20033;-75
2023/04/06 04:31:45;;;;;;;7.87;3.73;;;1.90;99.90;;;;;;4995568;28;20038;-75
2023/04/06 04:34:11;;;;;;;8.57;4.43;;;1.90;99.90;;;;;;5011196;28;20507;-75
2023/04/06 04:36:36;;;;;;;7.37;3.73;;;1.80;99.90;;;;;;4995604;28;20415;-75
2023/04/06 04:39:02;;;;;;;5.47;3.67;;;1.70;99.90;;;;;;4994702;28;20030;-75
2023/04/06 04:41:28;;;;;;;5.03;3.63;;;1.60;99.90;;;;;;5010714;28;20427;-75
2023/04/06 04:43:53;;;;;;;6.57;3.93;;;1.60;99.90;;;;;;4994122;28;20046;-75
2023/04/06 04:46:19;;;;;;;9.10;3.63;;;1.60;99.90;;;;;;4994719;28;20077;-76
2023/04/06 04:48:45;;;;;;;6.93;3.70;;;1.50;99.90;;;;;;4994060;28;20395;-75
2023/04/06 04:51:10;;;;;;;8.77;4.23;;;1.50;99.90;;;;;;4994902;28;20387;-76
2023/04/06 04:53:36;;;;;;;6.27;3.83;;;1.50;99.90;;;;;;4994144;28;20030;-76
2023/04/06 04:56:01;;;;;;;8.60;4.40;;;1.40;99.90;;;;;;4996146;28;20460;-76
2023/04/06 04:58:27;;;;;;;6.77;3.90;;;1.30;99.90;;;;;;4994853;28;20030;-76
2023/04/06 05:00:53;;;;;;;5.83;3.93;;;1.20;99.90;;;;;;4995441;28;20080;-77
2023/04/06 05:03:22;;;;;;;7.57;4.30;;;1.20;99.90;;;;;;4995825;28;20027;-76
2023/04/06 05:05:49;;;;;;;6.73;4.10;;;1.10;99.90;;;;;;5010328;28;20027;-76
2023/04/06 05:08:15;;;;;;;5.63;4.00;;;1.20;99.90;;;;;;4995611;28;20037;-76
2023/04/06 05:10:41;;;;;;;7.00;4.07;;;1.30;99.90;;;;;;4993698;28;21460;-76
2023/04/06 05:13:07;;;;;;;6.13;4.07;;;1.20;99.90;;;;;;4994390;28;20149;-76
2023/04/06 05:15:34;;;;;;;8.60;4.33;;;1.30;99.90;;;;;;4995513;28;20085;-76
2023/04/06 05:18:01;;;;;;;6.57;4.17;;;1.20;99.90;;;;;;4995067;28;20618;-76
2023/04/06 05:20:27;;;;;;;8.13;4.70;;;1.20;99.90;;;;;;4995485;28;20050;-76
2023/04/06 05:22:53;;;;;;;9.27;4.80;;;1.20;99.90;;;;;;5009916;28;20117;-76
2023/04/06 05:25:19;;;;;;;8.53;4.30;;;1.20;99.90;;;;;;4993367;28;20112;-76
2023/04/06 05:27:45;;;;;;;9.47;4.17;;;1.20;99.90;;;;;;4994870;28;20502;-76
2023/04/06 05:30:11;;;;;;;8.60;4.23;;;1.30;99.90;;;;;;4994003;28;20522;-76
2023/04/06 05:32:36;;;;;;;5.97;4.07;;;1.30;99.90;;;;;;4994494;28;20411;-74
2023/04/06 05:35:02;;;;;;;7.03;3.73;;;1.40;99.90;;;;;;5010626;28;20085;-76
2023/04/06 05:37:28;;;;;;;5.63;3.97;;;1.40;99.90;;;;;;4993879;28;20138;-76
2023/04/06 05:39:53;;;;;;;8.30;3.93;;;1.40;99.90;;;;;;4994259;28;20034;-77
2023/04/06 05:42:19;;;;;;;7.17;4.20;;;1.50;99.90;;;;;;4993727;28;20046;-77
2023/04/06 05:44:45;;;;;;;7.13;3.93;;;1.50;99.90;;;;;;4993508;28;20121;-77
2023/04/06 05:47:11;;;;;;;7.17;3.90;;;1.50;99.90;;;;;;4993956;28;20026;-79
2023/04/06 05:49:36;;;;;;;6.53;3.80;;;1.60;99.90;;;;;;4993807;28;20026;-76
2023/04/06 05:52:03;;;;;;;7.40;4.03;;;1.50;99.90;;;;;;4994775;28;20121;-75
2023/04/06 05:54:29;;;;;;;6.20;4.07;;;1.60;99.90;;;;;;4993472;28;20022;-78
2023/04/06 05:56:55;;;;;;;10.17;4.47;;;1.60;99.90;;;;;;4994050;28;20022;-79
2023/04/06 05:59:21;;;;;;;8.07;4.27;;;1.70;99.90;;;;;;5009964;28;20034;-79
2023/04/06 06:01:46;;;;;;;7.20;4.37;;;1.70;99.90;;;;;;5000720;28;20340;-79
2023/04/06 06:04:12;;;;;;;7.63;4.43;;;1.90;99.90;;;;;;5002808;28;20022;-79
2023/04/06 06:06:38;;;;;;;13.53;5.43;;;2.00;99.90;;;;;;5003426;28;20030;-75
2023/04/06 06:09:03;;;;;;;8.73;4.90;;;2.10;99.90;;;;;;4999895;28;20027;-76
2023/04/06 06:11:29;;;;;;;9.73;4.57;;;2.20;99.90;;;;;;4993055;28;20042;-76
2023/04/06 06:13:55;;;;;;;10.93;4.63;;;2.30;99.90;;;;;;4993827;28;20035;-76
2023/04/06 06:16:21;;;;;;;9.63;4.80;;;2.40;99.90;;;;;;4994076;28;20361;-77
2023/04/06 06:18:47;;;;;;;7.60;4.67;;;2.40;99.90;;;;;;4992951;28;20145;-77
2023/04/06 06:21:13;;;;;;;8.73;4.47;;;2.40;99.90;;;;;;4994482;28;20064;-76
2023/04/06 06:23:39;;;;;;;8.63;4.70;;;2.50;99.90;;;;;;4995946;28;20019;-76
2023/04/06 06:26:04;;;;;;;7.13;4.53;;;2.40;99.90;;;;;;4994348;28;20030;-76
2023/04/06 06:28:30;;;;;;;7.40;4.50;;;2.50;99.90;;;;;;4994376;28;20445;-77
2023/04/06 06:30:56;;;;;;;8.03;4.70;;;2.50;99.90;;;;;;4992494;28;20032;-77
2023/04/06 06:33:22;;;;;;;8.50;4.53;;;2.60;99.90;;;;;;4993152;28;20030;-77
2023/04/06 06:35:48;;;;;;;7.33;4.93;;;2.70;99.90;;;;;;4992301;28;20384;-77
2023/04/06 06:38:14;;;;;;;7.80;4.80;;;2.70;99.90;;;;;;4993018;28;20031;-77
2023/04/06 06:40:41;;;;;;;12.60;5.00;;;2.90;99.90;;;;;;4997878;28;20033;-74
2023/04/06 06:43:06;;;;;;;9.37;5.53;;;2.90;99.90;;;;;;5001203;28;20054;-77
2023/04/06 06:45:33;;;;;;;9.13;5.40;;;3.00;99.90;;;;;;5000534;28;20077;-77
2023/04/06 06:47:58;;;;;;;11.83;5.00;;;3.10;99.90;;;;;;4992270;28;20056;-77
2023/04/06 06:50:24;;;;;;;13.30;6.47;;;3.10;99.90;;;;;;4992801;28;20061;-76
2023/04/06 06:52:50;;;;;;;6.43;4.73;;;3.20;99.90;;;;;;4991939;28;20035;-76
2023/04/06 06:55:16;;;;;;;9.40;4.80;;;3.30;99.90;;;;;;4992660;28;20109;-77
2023/04/06 06:57:46;;;;;;;6.90;5.07;;;3.30;99.90;;;;;;4992060;28;20427;-75
2023/04/06 07:00:14;;;;;;;6.97;5.20;;;3.40;99.90;;;;;;4993755;28;20046;-77
2023/04/06 07:02:40;;;;;;;8.80;5.00;;;3.50;99.90;;;;;;4993792;28;20081;-77
2023/04/06 07:05:06;;;;;;;11.73;5.50;;;3.60;99.90;;;;;;4991991;28;20027;-76
2023/04/06 07:07:33;;;;;;;9.93;5.00;;;3.60;99.90;;;;;;4992582;28;20031;-76
2023/04/06 07:09:59;;;;;;;8.17;5.20;;;3.70;99.90;;;;;;4992144;28;20027;-77
2023/04/06 07:12:25;;;;;;;7.97;4.90;;;3.80;99.90;;;;;;4993646;28;20030;-77
2023/04/06 07:14:50;;;;;;;10.90;5.27;;;3.90;99.90;;;;;;4992127;28;20053;-77
2023/04/06 07:17:16;;;;;;;8.83;4.47;;;4.00;99.90;;;;;;4993606;28;20109;-76
2023/04/06 07:19:42;;;;;;;10.03;5.10;;;4.10;99.90;;;;;;4992492;28;20037;-77
2023/04/06 07:22:08;;;;;;;9.60;5.37;;;4.10;99.90;;;;;;4993178;28;20023;-76
2023/04/06 07:24:33;;;;;;;8.00;4.70;;;4.20;99.90;;;;;;4993633;28;20036;-78
2023/04/06 07:27:02;;;;;;;8.80;4.90;;;4.30;99.90;;;;;;4992985;28;20084;-77
2023/04/06 07:29:28;;;;;;;10.13;4.77;;;4.40;99.90;;;;;;4992251;28;20030;-77
2023/04/06 07:31:54;;;;;;;8.13;4.37;;;4.40;99.90;;;;;;5007315;28;20489;-77
2023/04/06 07:34:20;;;;;;;7.93;4.70;;;4.50;99.90;;;;;;5013008;28;20423;-77
2023/04/06 07:36:46;;;;;;;8.57;4.57;;;4.50;99.90;;;;;;5011315;28;20056;-77
2023/04/06 07:39:12;;;;;;;9.30;4.57;;;4.50;99.90;;;;;;5012826;28;20033;-77
2023/04/06 07:41:37;;;;;;;13.73;4.70;;;4.60;99.90;;;;;;5000342;28;20058;-77
2023/04/06 07:44:04;;;;;;;9.03;4.70;;;4.60;99.90;;;;;;4991753;28;20322;-77
2023/04/06 07:46:30;;;;;;;6.50;4.73;;;4.70;99.90;;;;;;5003589;28;20032;-77
2023/04/06 07:48:57;;;;;;;10.13;4.40;;;4.70;99.90;;;;;;5013810;28;20092;-77
2023/04/06 07:51:23;;;;;;;8.70;4.80;;;4.80;99.90;;;;;;5005669;28;20045;-77
2023/04/06 07:53:50;;;;;;;7.23;4.90;;;4.90;99.90;;;;;;5003630;28;20034;-76
2023/04/06 07:56:16;;;;;;;6.37;4.03;;;4.90;99.90;;;;;;5007226;28;20022;-77
2023/04/06 07:58:41;;;;;;;7.77;4.33;;;5.00;99.90;;;;;;5006157;28;20022;-77
2023/04/06 08:01:07;;;;;;;10.27;4.80;;;5.10;99.90;;;;;;5006823;28;20037;-76
2023/04/06 08:03:36;;;;;;;7.20;4.53;;;5.10;99.90;;;;;;5005150;28;20498;-76
2023/04/06 08:06:02;;;;;;;8.07;4.67;;;5.20;99.90;;;;;;5005962;28;20097;-77
2023/04/06 08:08:28;;;;;;;9.57;5.20;;;5.20;99.90;;;;;;5007581;28;20026;-78
2023/04/06 08:10:54;;;;;;;9.00;5.00;;;5.30;99.90;;;;;;4998865;28;20035;-77
2023/04/06 08:13:20;;;;;;;7.07;4.10;;;5.40;99.90;;;;;;5002771;28;20041;-77
2023/04/06 08:15:46;;;;;;;6.83;4.43;;;5.40;99.90;;;;;;5003619;28;20025;-77
2023/04/06 08:18:12;;;;;;;7.50;4.47;;;5.50;99.90;;;;;;5007337;28;20125;-77
2023/04/06 08:20:38;;;;;;;7.97;4.30;;;5.50;99.90;;;;;;5003184;28;20022;-78
2023/04/06 08:23:04;;;;;;;7.43;4.20;;;5.60;99.90;;;;;;5006840;28;20045;-78
2023/04/06 08:25:30;;;;;;;8.80;4.70;;;5.70;99.90;;;;;;5004267;28;20451;-77
2023/04/06 08:27:55;;;;;;;8.13;4.10;;;5.80;99.90;;;;;;5005335;28;20029;-77
2023/04/06 08:30:21;;;;;;;7.07;4.23;;;5.90;99.90;;;;;;5004404;28;20471;-76
2023/04/06 08:32:47;;;;;;;7.50;4.63;;;5.90;99.90;;;;;;5010536;28;20030;-76
2023/04/06 08:35:13;;;;;;;8.50;4.77;;;6.00;99.90;;;;;;5002513;28;20045;-76
2023/04/06 08:37:39;;;;;;;8.87;4.37;;;6.00;99.90;;;;;;4995401;28;20033;-76
2023/04/06 08:40:05;;;;;;;7.17;3.77;;;6.10;99.90;;;;;;4988091;28;20511;-82
2023/04/06 08:42:40;;;;;;;7.30;4.23;;;6.20;99.90;;;;;;4996680;28;20173;-86
2023/04/06 08:45:06;;;;;;;10.87;4.23;;;6.30;99.90;;;;;;4996725;28;20030;-86
2023/04/06 08:47:33;;;;;;;5.87;4.17;;;6.40;99.90;;;;;;4995206;28;20085;-86
2023/04/06 08:50:07;;;;;;;7.23;4.50;;;6.50;99.90;;;;;;4995026;28;20030;-87
2023/04/06 08:52:33;;;;;;;5.80;4.23;;;6.60;99.90;;;;;;4995211;28;20030;-83
2023/04/06 08:54:59;;;;;;;8.63;4.87;;;6.60;99.90;;;;;;5001556;28;20057;-85
2023/04/06 08:57:26;;;;;;;8.07;4.20;;;6.70;98.10;;;;;;4995845;28;20029;-87
2023/04/06 08:59:52;;;;;;;7.63;3.90;;;6.80;97.70;;;;;;4994108;28;20061;-78
2023/04/06 09:02:19;;;;;;;8.57;4.37;;;6.90;99.60;;;;;;4990078;28;20121;-77
2023/04/06 09:04:52;;;;;;;11.83;4.60;;;6.90;98.60;;;;;;4993952;28;20088;-80
2023/04/06 09:07:18;;;;;;;8.67;4.73;;;7.00;97.70;;;;;;4995108;28;20069;-81
2023/04/06 09:09:47;;;;;;;10.33;4.53;;;7.00;97.60;;;;;;4994933;28;20026;-86
2023/04/06 09:12:28;;;;;;;7.40;4.63;;;7.10;97.20;;;;;;5011015;28;20133;-85
2023/04/06 09:14:55;;;;;;;9.50;5.00;;;7.20;97.60;;;;;;4994869;28;20037;-84
2023/04/06 09:17:26;;;;;;;6.77;4.43;;;7.30;97.10;;;;;;4996239;28;20031;-85
2023/04/06 09:19:52;;;;;;;7.77;4.63;;;7.40;97.70;;;;;;4995612;28;20065;-82
2023/04/06 09:22:18;;;;;;;7.53;4.40;;;7.40;97.30;;;;;;4995580;28;20034;-83
2023/04/06 09:24:46;;;;;;;7.77;4.83;;;7.50;97.90;;;;;;4994622;28;20491;-83
2023/04/06 09:27:13;;;;;;;7.10;4.13;;;7.60;97.80;;;;;;4994251;28;20031;-82
2023/04/06 09:29:38;;;;;;;7.47;4.43;;;7.70;96.50;;;;;;4994730;28;20031;-83
2023/04/06 09:32:06;;;;;;;6.97;4.33;;;7.70;97.50;;;;;;4995385;28;20050;-83
2023/04/06 09:34:32;;;;;;;8.30;4.43;;;7.80;97.80;;;;;;4998933;28;20034;-80
2023/04/06 09:36:58;;;;;;;9.80;4.45;;;7.90;97.50;;;;;;4995055;28;20034;-80
2023/04/06 09:39:25;;;;;;;6.97;4.10;;;8.00;96.10;;;;;;4994458;28;20027;-79
2023/04/06 09:41:52;;;;;;;6.80;4.25;;;8.20;96.70;;;;;;5009783;28;20054;-83
2023/04/06 09:44:19;;;;;;;6.78;4.05;;;8.20;96.20;;;;;;4995054;28;20034;-83
2023/04/06 09:46:46;;;;;;;8.90;4.40;;;8.30;94.50;;;;;;4994353;28;20133;-82
2023/04/06 09:49:13;;;;;;;6.22;4.10;;;8.30;94.90;;;;;;4993772;28;20030;-79
2023/04/06 09:51:41;;;;;;;9.37;4.40;;;8.40;94.80;;;;;;4993931;28;20035;-83
2023/04/06 09:54:07;;;;;;;9.13;5.20;;;8.50;95.30;;;;;;4994736;28;20023;-83
2023/04/06 09:56:55;;;;;;;11.35;5.22;;;8.60;94.20;;;;;;4995335;28;20423;-81
2023/04/06 09:59:37;;;;;;;8.60;4.75;;;8.60;93.90;;;;;;4994336;28;20030;-81
2023/04/06 10:02:05;;;;;;;7.53;3.85;;;8.60;94.20;;;;;;4993853;28;20030;-81
2023/04/06 10:04:50;;;;;;;6.97;4.18;;;8.60;94.20;;;;;;4994827;28;20118;-80
2023/04/06 10:07:16;;;;;;;9.10;4.70;;;8.80;94.80;;;;;;4994369;28;20027;-81
2023/04/06 10:09:45;;;;;;;9.48;4.40;;;8.80;93.40;;;;;;4993978;28;20031;-79
2023/04/06 10:12:12;;;;;;;6.55;4.00;;;9.00;92.40;;;;;;4992769;28;20042;-79
2023/04/06 10:14:39;;;;;;;10.75;4.53;;;9.10;91.60;;;;;;4994959;28;20023;-79
2023/04/06 10:17:05;;;;;;;6.65;4.50;;;9.20;91.20;;;;;;5005016;28;20088;-80
2023/04/06 10:19:58;;;;;;;9.07;4.63;;;9.20;91.00;;;;;;5003441;28;20056;-79
2023/04/06 10:22:53;;;;;;;7.50;4.05;;;9.30;90.70;;;;;;5001580;28;20026;-80
2023/04/06 10:25:32;;;;;;;8.82;4.40;;;9.40;86.30;;;;;;4993453;28;20053;-79
2023/04/06 10:28:05;;;;;;;9.05;4.55;;;9.40;90.40;;;;;;4993453;28;20142;-81
2023/04/06 10:30:33;;;;;;;10.10;4.72;;;9.50;88.20;;;;;;4993856;28;20539;-81
2023/04/06 10:32:58;;;;;;;4.97;3.85;;;9.50;85.30;;;;;;4993209;28;20061;-81
2023/04/06 10:35:35;;;;;;;9.35;4.40;;;9.50;81.60;;;;;;4993216;28;20038;-81
2023/04/06 10:38:03;;;;;;;6.60;4.13;;;9.60;81.50;;;;;;4991526;28;20030;-81
2023/04/06 10:40:31;;;;;;;7.35;4.28;;;9.70;81.00;;;;;;4998519;28;20502;-80
2023/04/06 10:43:10;;;;;;;7.60;4.70;;;9.70;81.90;;;;;;5003337;28;20057;-82
2023/04/06 10:45:37;;;;;;;7.93;4.05;;;9.80;83.20;;;;;;5002800;28;20102;-83
2023/04/06 10:48:23;;;;;;;6.25;3.67;;;9.90;80.20;;;;;;4999611;28;20018;-80
2023/04/06 10:50:53;;;;;;;6.43;3.78;;;10.00;78.20;;;;;;4996880;28;20034;-81
2023/04/06 10:53:22;;;;;;;7.75;3.95;;;10.10;77.40;;;;;;5005674;28;20117;-82
2023/04/06 10:55:50;;;;;;;9.48;4.53;;;10.20;75.90;;;;;;5000737;28;20026;-81
2023/04/06 10:58:16;;;;;;;8.40;4.07;;;10.20;75.30;;;;;;4999285;28;20160;-82
2023/04/06 11:00:47;;;;;;;7.88;3.97;;;10.30;75.50;;;;;;5004732;28;20464;-82
2023/04/06 11:03:13;;;;;;;6.70;3.60;;;10.50;69.30;;;;;;4993458;28;20030;-82
2023/04/06 11:05:44;;;;;;;6.53;3.80;;;10.80;70.10;;;;;;4992866;28;20045;-80
2023/04/06 11:08:10;;;;;;;5.60;3.80;;;11.00;71.80;;;;;;4992889;28;20026;-81
2023/04/06 11:10:35;;;;;;;8.32;4.53;;;11.20;70.10;;;;;;4984276;28;20025;-80
2023/04/06 11:13:02;;;;;;;6.15;4.03;;;11.30;69.20;;;;;;4993953;28;20052;-81
2023/04/06 11:15:34;;;;;;;6.72;4.40;;;11.40;69.70;;;;;;4994201;28;20022;-79
2023/04/06 11:18:04;;;;;;;9.13;4.40;;;11.50;67.40;;;;;;4992789;28;20022;-83
2023/04/06 11:20:30;;;;;;;7.40;4.32;;;11.60;68.40;;;;;;4994133;28;20018;-80
2023/04/06 11:22:56;;;;;;;6.05;3.83;;;11.70;68.90;;;;;;4993384;28;20035;-81
2023/04/06 11:25:21;;;;;;;8.02;4.63;;;11.80;67.80;;;;;;4996676;28;20117;-81
2023/04/06 11:27:48;;;;;;;7.38;4.40;;;11.90;65.70;;;;;;4998188;28;20022;-82
2023/04/06 11:30:14;;;;;;;8.00;4.57;;;11.90;65.30;;;;;;4996564;28;20215;-82
2023/04/06 11:32:45;;;;;;;6.88;4.50;;;12.00;64.20;;;;;;4997155;28;20031;-82
2023/04/06 11:35:19;;;;;;;5.95;3.80;;;12.00;64.60;;;;;;4996801;28;20062;-81
2023/04/06 11:37:45;;;;;;;7.72;4.30;;;12.10;64.10;;;;;;4997435;28;20034;-81
2023/04/06 11:40:11;;;;;;;6.55;3.55;;;12.10;65.40;;;;;;4986251;28;20023;-81
2023/04/06 11:42:37;;;;;;;6.82;4.03;;;12.20;63.50;;;;;;4996374;28;20054;-79
2023/04/06 11:45:03;;;;;;;7.63;4.35;;;12.30;62.00;;;;;;4996790;28;20089;-80
2023/04/06 11:47:30;;;;;;;7.28;4.00;;;12.40;62.70;;;;;;4996156;28;20030;-80
2023/04/06 11:50:05;;;;;;;5.18;3.42;;;12.50;63.80;;;;;;4996343;28;20034;-85
2023/04/06 11:52:31;;;;;;;7.13;3.75;;;12.60;63.90;;;;;;4996996;28;20153;-85
2023/04/06 11:54:57;;;;;;;7.38;3.72;;;12.70;63.00;;;;;;4997521;28;20032;-83
2023/04/06 11:57:26;;;;;;;6.72;3.50;;;12.80;60.80;;;;;;4996954;28;20027;-81
2023/04/06 11:59:52;;;;;;;7.93;3.83;;;12.90;60.90;;;;;;4997677;28;20031;-81
2023/04/06 12:02:18;;;;;;;5.07;3.47;;;13.00;60.70;;;;;;4995918;28;20468;-82
2023/04/06 12:04:44;;;;;;;7.63;4.13;;;13.00;59.30;;;;;;4996075;28;20026;-82
2023/04/06 12:07:10;;;;;;;6.78;3.40;;;13.10;58.90;;;;;;4995968;28;20033;-84
2023/04/06 12:09:36;;;;;;;7.15;3.50;;;13.30;59.10;;;;;;4996173;28;20027;-83
2023/04/06 12:12:03;;;;;;;6.43;3.30;;;13.30;55.80;;;;;;4997180;28;20039;-83
2023/04/06 12:14:30;;;;;;;4.78;3.38;;;13.30;54.10;;;;;;4997381;28;20109;-83
2023/04/06 12:16:57;;;;;;;4.65;3.00;;;13.30;53.20;;;;;;4997158;28;20092;-83
2023/04/06 12:19:25;;;;;;;5.70;3.17;;;13.30;54.90;;;;;;4996426;28;20428;-83
2023/04/06 12:21:54;;;;;;;6.10;3.75;;;13.40;53.20;;;;;;4996369;28;20030;-83
2023/04/06 12:24:20;;;;;;;6.15;3.50;;;13.40;53.00;;;;;;4996243;28;20101;-83
2023/04/06 12:26:46;;;;;;;7.82;3.63;;;13.60;52.70;;;;;;4997092;28;20061;-82
2023/04/06 12:29:13;;;;;;;7.55;3.60;;;13.70;52.60;;;;;;4995709;28;20026;-83
2023/04/06 12:31:40;;;;;;;7.28;3.50;;;13.80;53.50;;;;;;4995822;28;20423;-83
2023/04/06 12:34:06;;;;;;;7.38;3.60;;;13.90;52.40;;;;;;4995345;28;20026;-82
2023/04/06 12:36:32;;;;;;;4.53;3.50;;;14.20;52.30;;;;;;4996906;28;20027;-81
2023/04/06 12:38:58;;;;;;;6.18;3.00;;;14.40;53.40;;;;;;4995860;28;20118;-81
2023/04/06 12:41:24;;;;;;;6.43;3.47;;;14.70;51.90;;;;;;4996036;28;20070;-81
2023/04/06 12:43:50;;;;;;;4.65;3.20;;;14.60;50.70;;;;;;4995306;28;20034;-83
2023/04/06 12:46:16;;;;;;;6.38;3.63;;;14.50;49.90;;;;;;4996128;28;20030;-82
2023/04/06 12:48:42;;;;;;;7.90;3.20;;;14.40;49.50;;;;;;4996668;28;20534;-81
2023/04/06 12:51:07;;;;;;;5.53;3.25;;;14.70;51.40;;;;;;4994993;28;20030;-81
2023/04/06 12:53:35;;;;;;;6.57;3.50;;;14.80;49.50;;;;;;4995333;28;20065;-81